Campanya meteocatpedra

Dades EMA el Prat de Llobregat

?
?
Resum diari
Dades diàries de l'estació meteorològica
Temperatura mitjana 10.1 °C
Temperatura màxima 16.4 °C 13:05 TU
Temperatura mínima 5.1 °C 4:20 TU
Humitat relativa mitjana 78%
Precipitació acumulada 8.6 mm
Ratxa màxima del vent (10 m) 39.2 km/h - 202º 14:45 TU
Irradiació solar global 17.7 MJ/m2

El tram horari està expressat en Temps Universal (TU). Cal sumar una hora en horari d'hivern i dues en horari d'estiu per passar a l'hora oficial.

el Prat de Llobregat

Metadades estació meteorol´gica
Municipi El Prat de Llobregat
Comarca Baix Llobregat
Altitud 8 m
Data alta 22.03.2011
Estat actual Operativa
Dades de període
Període
TU
TM
°C
TX
°C
TN
°C
HRM
%
PPT
mm
VVM (10 m)
km/h
DVM (10 m)
graus
VVX (10 m)
km/h
RS
W/m2
00:00 - 00:30 6.4 6.5 6.3 96 2.4 16.9 328 32.0 0
00:30 - 01:00 6.4 6.5 6.3 96 0.7 12.2 325 22.3 0
01:00 - 01:30 6.6 6.7 6.5 95 0.7 12.6 331 23.4 0
01:30 - 02:00 6.4 6.7 6.1 94 1.1 12.2 318 25.9 0
02:00 - 02:30 5.9 6.1 5.7 93 1.2 11.9 315 21.6 0
02:30 - 03:00 5.5 5.7 5.4 92 1.0 14.0 324 28.8 0
03:00 - 03:30 5.3 5.5 5.2 91 0.4 12.6 312 25.2 0
03:30 - 04:00 5.2 5.2 5.1 89 0.2 12.2 311 24.5 0
04:00 - 04:30 5.2 5.4 5.1 88 0.4 15.1 298 27.0 0
04:30 - 05:00 5.7 5.9 5.4 88 0.2 14.0 267 26.3 0
05:00 - 05:30 6.0 6.3 5.7 89 0.2 14.0 292 32.8 0
05:30 - 06:00 6.5 6.7 6.3 85 0.0 12.2 309 24.1 0
06:00 - 06:30 6.6 6.7 6.5 86 0.0 3.2 269 14.0 6
06:30 - 07:00 6.6 6.9 6.5 90 0.1 1.4 34 5.8 29
07:00 - 07:30 7.4 8.1 6.9 90 0.0 1.8 35 5.8 138
07:30 - 08:00 8.9 9.3 8.4 84 0.0 3.2 191 9.0 274
08:00 - 08:30 10.2 11.1 9.4 79 0.0 4.0 271 10.8 327
08:30 - 09:00 11.3 12.0 10.5 74 0.0 4.3 286 8.6 494
09:00 - 09:30 12.0 12.7 11.7 74 0.0 4.3 277 9.0 565
09:30 - 10:00 12.7 13.2 12.2 73 0.0 6.1 284 16.9 649
10:00 - 10:30 13.7 14.6 13.3 70 0.0 4.3 301 9.4 742
10:30 - 11:00 14.2 15.7 13.5 69 0.0 4.0 141 14.4 663
11:00 - 11:30 15.0 16.1 13.8 69 0.0 10.1 187 18.7 500
11:30 - 12:00 14.7 15.5 13.9 71 0.0 8.3 143 17.3 541
12:00 - 12:30 15.2 16.1 14.8 68 0.0 9.7 136 20.5 570
12:30 - 13:00 15.3 16.2 14.8 69 0.0 14.0 141 25.9 740
13:00 - 13:30 15.5 16.4 14.5 68 0.0 12.2 153 25.2 589
13:30 - 14:00 15.7 16.2 14.7 65 0.0 18.7 187 32.0 625
14:00 - 14:30 15.3 15.8 15.0 63 0.0 22.0 212 34.9 618
14:30 - 15:00 14.8 15.4 14.4 63 0.0 22.7 214 39.2 495
15:00 - 15:30 14.5 15.0 14.3 63 0.0 16.9 227 30.6 373
15:30 - 16:00 14.2 14.7 13.7 65 0.0 17.6 224 30.2 308
16:00 - 16:30 14.2 14.7 13.8 62 0.0 17.6 229 28.1 269
16:30 - 17:00 13.7 14.4 12.7 61 0.0 11.2 273 29.5 203
17:00 - 17:30 12.6 13.1 12.2 62 0.0 10.1 310 18.4 107
17:30 - 18:00 11.4 12.1 10.9 66 0.0 7.2 311 13.7 22
18:00 - 18:30 10.6 10.9 10.2 70 0.0 7.9 306 13.0 1
18:30 - 19:00 10.0 10.2 9.8 73 0.0 7.2 310 14.4 0
19:00 - 19:30 9.8 10.1 9.5 73 0.0 7.9 314 12.6 0
19:30 - 20:00 9.3 9.5 9.0 76 0.0 7.6 313 13.7 0
20:00 - 20:30 8.8 9.0 8.5 80 0.0 9.4 310 14.8 0
20:30 - 21:00 8.3 8.5 8.2 82 0.0 8.6 315 16.2 0
21:00 - 21:30 8.2 8.3 7.8 83 0.0 8.6 313 16.6 0
21:30 - 22:00 7.8 8.0 7.7 85 0.0 9.7 310 16.6 0
22:00 - 22:30 8.0 8.1 7.7 84 0.0 9.0 316 16.2 0
22:30 - 23:00 7.8 7.9 7.7 85 0.0 10.1 315 18.4 0

Les dades en taronja només han passat un control de qualitat automàtic. Resta pendent la seva validació definitiva.